sensor_id;sensor_type;location;lat;lon;timestamp;P1;durP1;ratioP1;P2;durP2;ratioP2
22072;SDS011;11202;50.916;4.698;2022-12-29T00:02:14;1.35;;;1.10;;
22072;SDS011;11202;50.916;4.698;2022-12-29T00:04:40;2.13;;;1.17;;
22072;SDS011;11202;50.916;4.698;2022-12-29T00:07:06;1.02;;;0.95;;
22072;SDS011;11202;50.916;4.698;2022-12-29T00:09:33;2.03;;;1.15;;
22072;SDS011;11202;50.916;4.698;2022-12-29T00:12:02;1.95;;;1.25;;
22072;SDS011;11202;50.916;4.698;2022-12-29T00:14:29;2.35;;;1.50;;
22072;SDS011;11202;50.916;4.698;2022-12-29T00:17:13;1.80;;;1.20;;
22072;SDS011;11202;50.916;4.698;2022-12-29T00:19:39;2.00;;;1.25;;
22072;SDS011;11202;50.916;4.698;2022-12-29T00:22:26;1.83;;;1.02;;
22072;SDS011;11202;50.916;4.698;2022-12-29T00:25:12;2.25;;;1.15;;
22072;SDS011;11202;50.916;4.698;2022-12-29T00:27:56;1.80;;;0.95;;
22072;SDS011;11202;50.916;4.698;2022-12-29T00:30:41;2.47;;;0.80;;
22072;SDS011;11202;50.916;4.698;2022-12-29T00:33:27;1.88;;;1.10;;
22072;SDS011;11202;50.916;4.698;2022-12-29T00:36:21;3.00;;;0.75;;
22072;SDS011;11202;50.916;4.698;2022-12-29T00:39:02;3.97;;;0.98;;
22072;SDS011;11202;50.916;4.698;2022-12-29T00:41:50;1.85;;;0.90;;
22072;SDS011;11202;50.916;4.698;2022-12-29T00:44:34;1.10;;;1.00;;
22072;SDS011;11202;50.916;4.698;2022-12-29T00:47:00;1.23;;;0.77;;
22072;SDS011;11202;50.916;4.698;2022-12-29T00:49:32;2.33;;;1.15;;
22072;SDS011;11202;50.916;4.698;2022-12-29T00:52:02;3.03;;;1.05;;
22072;SDS011;11202;50.916;4.698;2022-12-29T00:54:33;1.10;;;0.68;;
22072;SDS011;11202;50.916;4.698;2022-12-29T00:56:59;4.40;;;1.30;;
22072;SDS011;11202;50.916;4.698;2022-12-29T00:59:26;1.13;;;0.88;;
22072;SDS011;11202;50.916;4.698;2022-12-29T01:01:52;3.75;;;1.15;;
22072;SDS011;11202;50.916;4.698;2022-12-29T01:04:20;1.77;;;0.90;;
22072;SDS011;11202;50.916;4.698;2022-12-29T01:06:47;6.60;;;1.02;;
22072;SDS011;11202;50.916;4.698;2022-12-29T01:09:12;1.88;;;0.93;;
22072;SDS011;11202;50.916;4.698;2022-12-29T01:11:59;1.00;;;0.80;;
22072;SDS011;11202;50.916;4.698;2022-12-29T01:14:25;2.70;;;1.10;;
22072;SDS011;11202;50.916;4.698;2022-12-29T01:16:52;2.00;;;1.02;;
22072;SDS011;11202;50.916;4.698;2022-12-29T01:19:18;3.88;;;0.93;;
22072;SDS011;11202;50.916;4.698;2022-12-29T01:21:44;2.10;;;1.00;;
22072;SDS011;11202;50.916;4.698;2022-12-29T01:24:11;2.33;;;1.00;;
22072;SDS011;11202;50.916;4.698;2022-12-29T01:26:36;1.73;;;1.10;;
22072;SDS011;11202;50.916;4.698;2022-12-29T01:29:04;2.15;;;0.90;;
22072;SDS011;11202;50.916;4.698;2022-12-29T01:31:30;3.33;;;0.82;;
22072;SDS011;11202;50.916;4.698;2022-12-29T01:33:58;1.65;;;1.00;;
22072;SDS011;11202;50.916;4.698;2022-12-29T01:36:24;3.00;;;1.00;;
22072;SDS011;11202;50.916;4.698;2022-12-29T01:38:51;1.42;;;1.15;;
22072;SDS011;11202;50.916;4.698;2022-12-29T01:41:17;2.60;;;0.80;;
22072;SDS011;11202;50.916;4.698;2022-12-29T01:46:31;0.88;;;0.80;;
22072;SDS011;11202;50.916;4.698;2022-12-29T01:51:39;2.05;;;1.10;;
22072;SDS011;11202;50.916;4.698;2022-12-29T01:54:10;3.75;;;1.38;;
22072;SDS011;11202;50.916;4.698;2022-12-29T01:56:42;1.67;;;1.00;;
22072;SDS011;11202;50.916;4.698;2022-12-29T01:59:10;3.05;;;1.35;;
22072;SDS011;11202;50.916;4.698;2022-12-29T02:01:40;6.07;;;1.40;;
22072;SDS011;11202;50.916;4.698;2022-12-29T02:04:08;2.80;;;1.38;;
22072;SDS011;11202;50.916;4.698;2022-12-29T02:06:48;1.10;;;0.90;;
22072;SDS011;11202;50.916;4.698;2022-12-29T02:09:21;3.10;;;1.10;;
22072;SDS011;11202;50.916;4.698;2022-12-29T02:11:48;2.38;;;0.77;;
22072;SDS011;11202;50.916;4.698;2022-12-29T02:14:17;1.77;;;0.80;;
22072;SDS011;11202;50.916;4.698;2022-12-29T02:22:12;1.38;;;0.60;;
22072;SDS011;11202;50.916;4.698;2022-12-29T02:28:02;2.75;;;0.80;;
22072;SDS011;11202;50.916;4.698;2022-12-29T02:31:08;1.15;;;0.70;;
22072;SDS011;11202;50.916;4.698;2022-12-29T02:33:49;2.70;;;0.50;;
22072;SDS011;11202;50.916;4.698;2022-12-29T02:39:19;3.83;;;0.77;;
22072;SDS011;11202;50.916;4.698;2022-12-29T02:41:56;1.83;;;0.60;;
22072;SDS011;11202;50.916;4.698;2022-12-29T02:49:51;4.95;;;0.60;;
22072;SDS011;11202;50.916;4.698;2022-12-29T02:55:10;4.25;;;0.93;;
22072;SDS011;11202;50.916;4.698;2022-12-29T02:57:36;1.38;;;0.52;;
22072;SDS011;11202;50.916;4.698;2022-12-29T03:00:10;2.95;;;0.50;;
22072;SDS011;11202;50.916;4.698;2022-12-29T03:13:26;0.95;;;0.75;;
22072;SDS011;11202;50.916;4.698;2022-12-29T03:16:35;0.50;;;0.50;;
22072;SDS011;11202;50.916;4.698;2022-12-29T03:19:32;0.70;;;0.45;;
22072;SDS011;11202;50.916;4.698;2022-12-29T03:22:07;1.92;;;0.65;;
22072;SDS011;11202;50.916;4.698;2022-12-29T03:24:54;1.10;;;0.50;;
22072;SDS011;11202;50.916;4.698;2022-12-29T03:27:51;1.98;;;0.50;;
22072;SDS011;11202;50.916;4.698;2022-12-29T03:30:21;0.85;;;0.40;;
22072;SDS011;11202;50.916;4.698;2022-12-29T03:32:54;0.43;;;0.40;;
22072;SDS011;11202;50.916;4.698;2022-12-29T03:35:24;2.00;;;0.70;;
22072;SDS011;11202;50.916;4.698;2022-12-29T03:37:54;2.70;;;0.85;;
22072;SDS011;11202;50.916;4.698;2022-12-29T03:40:27;2.00;;;0.80;;
22072;SDS011;11202;50.916;4.698;2022-12-29T03:42:54;3.33;;;0.50;;
22072;SDS011;11202;50.916;4.698;2022-12-29T03:45:20;2.40;;;0.60;;
22072;SDS011;11202;50.916;4.698;2022-12-29T03:47:46;1.05;;;0.57;;
22072;SDS011;11202;50.916;4.698;2022-12-29T03:50:13;3.97;;;0.68;;
22072;SDS011;11202;50.916;4.698;2022-12-29T03:52:40;1.77;;;0.77;;
22072;SDS011;11202;50.916;4.698;2022-12-29T03:55:10;1.20;;;0.60;;
22072;SDS011;11202;50.916;4.698;2022-12-29T03:57:38;4.82;;;0.75;;
22072;SDS011;11202;50.916;4.698;2022-12-29T04:00:04;3.38;;;0.90;;
22072;SDS011;11202;50.916;4.698;2022-12-29T04:02:31;2.00;;;0.80;;
22072;SDS011;11202;50.916;4.698;2022-12-29T04:04:58;3.75;;;0.80;;
22072;SDS011;11202;50.916;4.698;2022-12-29T04:07:24;2.15;;;1.00;;
22072;SDS011;11202;50.916;4.698;2022-12-29T04:09:49;3.38;;;1.00;;
22072;SDS011;11202;50.916;4.698;2022-12-29T04:12:15;3.15;;;0.88;;
22072;SDS011;11202;50.916;4.698;2022-12-29T04:14:43;4.80;;;1.20;;
22072;SDS011;11202;50.916;4.698;2022-12-29T04:17:09;3.35;;;0.93;;
22072;SDS011;11202;50.916;4.698;2022-12-29T04:19:35;5.43;;;1.30;;
22072;SDS011;11202;50.916;4.698;2022-12-29T04:22:00;2.28;;;0.68;;
22072;SDS011;11202;50.916;4.698;2022-12-29T04:24:28;3.97;;;0.90;;
22072;SDS011;11202;50.916;4.698;2022-12-29T04:26:54;3.45;;;1.13;;
22072;SDS011;11202;50.916;4.698;2022-12-29T04:29:20;5.97;;;0.95;;
22072;SDS011;11202;50.916;4.698;2022-12-29T04:31:46;2.83;;;0.85;;
22072;SDS011;11202;50.916;4.698;2022-12-29T04:34:12;6.22;;;0.80;;
22072;SDS011;11202;50.916;4.698;2022-12-29T04:36:38;5.43;;;0.90;;
22072;SDS011;11202;50.916;4.698;2022-12-29T04:39:05;1.60;;;0.70;;
22072;SDS011;11202;50.916;4.698;2022-12-29T04:41:33;7.43;;;1.20;;
22072;SDS011;11202;50.916;4.698;2022-12-29T04:43:59;4.30;;;0.98;;
22072;SDS011;11202;50.916;4.698;2022-12-29T04:46:24;3.25;;;0.85;;
22072;SDS011;11202;50.916;4.698;2022-12-29T04:48:50;5.57;;;1.25;;
22072;SDS011;11202;50.916;4.698;2022-12-29T04:51:16;2.70;;;1.00;;
22072;SDS011;11202;50.916;4.698;2022-12-29T04:53:41;5.88;;;1.10;;
22072;SDS011;11202;50.916;4.698;2022-12-29T04:56:09;3.03;;;0.93;;
22072;SDS011;11202;50.916;4.698;2022-12-29T04:58:36;4.40;;;1.00;;
22072;SDS011;11202;50.916;4.698;2022-12-29T05:01:02;5.63;;;0.90;;
22072;SDS011;11202;50.916;4.698;2022-12-29T05:03:30;3.58;;;1.20;;
22072;SDS011;11202;50.916;4.698;2022-12-29T05:05:58;4.88;;;1.20;;
22072;SDS011;11202;50.916;4.698;2022-12-29T05:08:26;6.75;;;1.40;;
22072;SDS011;11202;50.916;4.698;2022-12-29T05:10:54;4.80;;;1.05;;
22072;SDS011;11202;50.916;4.698;2022-12-29T05:13:20;3.55;;;0.85;;
22072;SDS011;11202;50.916;4.698;2022-12-29T05:15:52;5.25;;;1.20;;
22072;SDS011;11202;50.916;4.698;2022-12-29T05:18:18;2.33;;;0.85;;
22072;SDS011;11202;50.916;4.698;2022-12-29T05:20:46;3.22;;;1.13;;
22072;SDS011;11202;50.916;4.698;2022-12-29T05:23:12;4.55;;;1.30;;
22072;SDS011;11202;50.916;4.698;2022-12-29T05:25:38;7.88;;;1.20;;
22072;SDS011;11202;50.916;4.698;2022-12-29T05:28:04;4.15;;;1.25;;
22072;SDS011;11202;50.916;4.698;2022-12-29T05:30:30;3.08;;;1.02;;
22072;SDS011;11202;50.916;4.698;2022-12-29T05:32:56;5.50;;;1.20;;
22072;SDS011;11202;50.916;4.698;2022-12-29T05:35:24;4.53;;;1.27;;
22072;SDS011;11202;50.916;4.698;2022-12-29T05:37:50;6.28;;;0.93;;
22072;SDS011;11202;50.916;4.698;2022-12-29T05:40:16;3.83;;;0.90;;
22072;SDS011;11202;50.916;4.698;2022-12-29T05:42:41;4.78;;;1.05;;
22072;SDS011;11202;50.916;4.698;2022-12-29T05:45:07;4.40;;;0.85;;
22072;SDS011;11202;50.916;4.698;2022-12-29T05:47:34;8.35;;;1.13;;
22072;SDS011;11202;50.916;4.698;2022-12-29T05:49:59;2.13;;;1.15;;
22072;SDS011;11202;50.916;4.698;2022-12-29T05:52:25;7.70;;;1.45;;
22072;SDS011;11202;50.916;4.698;2022-12-29T05:54:51;4.43;;;1.08;;
22072;SDS011;11202;50.916;4.698;2022-12-29T05:57:17;5.15;;;1.65;;
22072;SDS011;11202;50.916;4.698;2022-12-29T05:59:42;7.30;;;1.50;;
22072;SDS011;11202;50.916;4.698;2022-12-29T06:02:09;3.05;;;1.17;;
22072;SDS011;11202;50.916;4.698;2022-12-29T06:04:34;4.40;;;1.10;;
22072;SDS011;11202;50.916;4.698;2022-12-29T06:07:00;3.88;;;0.98;;
22072;SDS011;11202;50.916;4.698;2022-12-29T06:09:26;6.03;;;1.60;;
22072;SDS011;11202;50.916;4.698;2022-12-29T06:11:52;6.90;;;1.25;;
22072;SDS011;11202;50.916;4.698;2022-12-29T06:14:18;7.82;;;1.35;;
22072;SDS011;11202;50.916;4.698;2022-12-29T06:16:43;7.78;;;1.38;;
22072;SDS011;11202;50.916;4.698;2022-12-29T06:19:11;4.20;;;0.98;;
22072;SDS011;11202;50.916;4.698;2022-12-29T06:21:37;9.65;;;1.90;;
22072;SDS011;11202;50.916;4.698;2022-12-29T06:24:04;4.88;;;1.65;;
22072;SDS011;11202;50.916;4.698;2022-12-29T06:26:32;4.10;;;0.88;;
22072;SDS011;11202;50.916;4.698;2022-12-29T06:29:00;6.55;;;1.33;;
22072;SDS011;11202;50.916;4.698;2022-12-29T06:31:26;6.47;;;1.50;;
22072;SDS011;11202;50.916;4.698;2022-12-29T06:33:55;8.02;;;1.10;;
22072;SDS011;11202;50.916;4.698;2022-12-29T06:36:21;5.57;;;1.33;;
22072;SDS011;11202;50.916;4.698;2022-12-29T06:38:47;5.20;;;1.08;;
22072;SDS011;11202;50.916;4.698;2022-12-29T06:41:13;8.68;;;1.30;;
22072;SDS011;11202;50.916;4.698;2022-12-29T06:43:39;2.35;;;1.00;;
22072;SDS011;11202;50.916;4.698;2022-12-29T06:46:07;8.55;;;1.60;;
22072;SDS011;11202;50.916;4.698;2022-12-29T06:48:33;2.40;;;0.90;;
22072;SDS011;11202;50.916;4.698;2022-12-29T06:50:59;6.22;;;1.48;;
22072;SDS011;11202;50.916;4.698;2022-12-29T06:53:27;4.82;;;1.38;;
22072;SDS011;11202;50.916;4.698;2022-12-29T06:55:53;5.82;;;1.10;;
22072;SDS011;11202;50.916;4.698;2022-12-29T06:58:19;7.45;;;1.33;;
22072;SDS011;11202;50.916;4.698;2022-12-29T07:00:44;7.53;;;1.30;;
22072;SDS011;11202;50.916;4.698;2022-12-29T07:03:13;4.15;;;1.33;;
22072;SDS011;11202;50.916;4.698;2022-12-29T07:05:38;8.85;;;1.52;;
22072;SDS011;11202;50.916;4.698;2022-12-29T07:08:06;6.75;;;1.10;;
22072;SDS011;11202;50.916;4.698;2022-12-29T07:10:32;5.28;;;1.25;;
22072;SDS011;11202;50.916;4.698;2022-12-29T07:12:58;4.28;;;1.25;;
22072;SDS011;11202;50.916;4.698;2022-12-29T07:15:23;4.72;;;0.93;;
22072;SDS011;11202;50.916;4.698;2022-12-29T07:17:49;6.78;;;1.25;;
22072;SDS011;11202;50.916;4.698;2022-12-29T07:20:17;5.20;;;1.08;;
22072;SDS011;11202;50.916;4.698;2022-12-29T07:22:43;4.22;;;0.88;;
22072;SDS011;11202;50.916;4.698;2022-12-29T07:25:09;3.38;;;1.15;;
22072;SDS011;11202;50.916;4.698;2022-12-29T07:27:34;8.27;;;1.48;;
22072;SDS011;11202;50.916;4.698;2022-12-29T07:30:01;5.75;;;1.30;;
22072;SDS011;11202;50.916;4.698;2022-12-29T07:32:26;5.57;;;1.40;;
22072;SDS011;11202;50.916;4.698;2022-12-29T07:34:52;5.13;;;1.17;;
22072;SDS011;11202;50.916;4.698;2022-12-29T07:37:18;9.45;;;1.15;;
22072;SDS011;11202;50.916;4.698;2022-12-29T07:39:43;5.25;;;1.15;;
22072;SDS011;11202;50.916;4.698;2022-12-29T07:42:09;8.57;;;1.38;;
22072;SDS011;11202;50.916;4.698;2022-12-29T07:44:34;6.63;;;1.63;;
22072;SDS011;11202;50.916;4.698;2022-12-29T07:47:03;4.97;;;0.88;;
22072;SDS011;11202;50.916;4.698;2022-12-29T07:49:29;4.70;;;1.08;;
22072;SDS011;11202;50.916;4.698;2022-12-29T07:51:54;6.55;;;1.30;;
22072;SDS011;11202;50.916;4.698;2022-12-29T07:54:20;7.22;;;1.73;;
22072;SDS011;11202;50.916;4.698;2022-12-29T07:56:49;7.20;;;1.55;;
22072;SDS011;11202;50.916;4.698;2022-12-29T07:59:15;5.72;;;1.30;;
22072;SDS011;11202;50.916;4.698;2022-12-29T08:01:40;6.45;;;1.45;;
22072;SDS011;11202;50.916;4.698;2022-12-29T08:04:06;7.57;;;1.92;;
22072;SDS011;11202;50.916;4.698;2022-12-29T08:06:32;5.97;;;1.80;;
22072;SDS011;11202;50.916;4.698;2022-12-29T08:08:57;8.77;;;1.52;;
22072;SDS011;11202;50.916;4.698;2022-12-29T08:11:25;8.80;;;2.10;;
22072;SDS011;11202;50.916;4.698;2022-12-29T08:13:51;4.30;;;1.20;;
22072;SDS011;11202;50.916;4.698;2022-12-29T08:16:17;5.95;;;1.90;;
22072;SDS011;11202;50.916;4.698;2022-12-29T08:18:45;8.30;;;1.83;;
22072;SDS011;11202;50.916;4.698;2022-12-29T08:21:13;5.85;;;1.30;;
22072;SDS011;11202;50.916;4.698;2022-12-29T08:23:41;11.32;;;1.27;;
22072;SDS011;11202;50.916;4.698;2022-12-29T08:26:07;5.43;;;1.40;;
22072;SDS011;11202;50.916;4.698;2022-12-29T08:28:35;6.40;;;1.52;;
22072;SDS011;11202;50.916;4.698;2022-12-29T08:31:01;6.53;;;1.33;;
22072;SDS011;11202;50.916;4.698;2022-12-29T08:33:28;4.93;;;1.23;;
22072;SDS011;11202;50.916;4.698;2022-12-29T08:36:04;3.50;;;1.25;;
22072;SDS011;11202;50.916;4.698;2022-12-29T08:38:32;6.70;;;1.30;;
22072;SDS011;11202;50.916;4.698;2022-12-29T08:40:58;6.10;;;1.75;;
22072;SDS011;11202;50.916;4.698;2022-12-29T08:43:26;8.60;;;2.17;;
22072;SDS011;11202;50.916;4.698;2022-12-29T08:45:52;6.97;;;1.17;;
22072;SDS011;11202;50.916;4.698;2022-12-29T08:48:21;9.40;;;1.73;;
22072;SDS011;11202;50.916;4.698;2022-12-29T08:50:47;5.90;;;1.90;;
22072;SDS011;11202;50.916;4.698;2022-12-29T08:53:13;6.75;;;1.23;;
22072;SDS011;11202;50.916;4.698;2022-12-29T08:55:39;6.57;;;1.23;;
22072;SDS011;11202;50.916;4.698;2022-12-29T08:58:04;7.30;;;1.55;;
22072;SDS011;11202;50.916;4.698;2022-12-29T09:00:30;12.18;;;2.38;;
22072;SDS011;11202;50.916;4.698;2022-12-29T09:02:56;10.93;;;1.70;;
22072;SDS011;11202;50.916;4.698;2022-12-29T09:05:21;13.30;;;2.28;;
22072;SDS011;11202;50.916;4.698;2022-12-29T09:07:47;7.88;;;1.13;;
22072;SDS011;11202;50.916;4.698;2022-12-29T09:10:13;6.78;;;1.63;;
22072;SDS011;11202;50.916;4.698;2022-12-29T09:12:39;6.80;;;1.63;;
22072;SDS011;11202;50.916;4.698;2022-12-29T09:15:05;5.25;;;1.20;;
22072;SDS011;11202;50.916;4.698;2022-12-29T09:17:32;7.60;;;1.55;;
22072;SDS011;11202;50.916;4.698;2022-12-29T09:20:12;7.53;;;1.63;;
22072;SDS011;11202;50.916;4.698;2022-12-29T09:22:38;11.50;;;1.73;;
22072;SDS011;11202;50.916;4.698;2022-12-29T09:25:07;17.33;;;2.00;;
22072;SDS011;11202;50.916;4.698;2022-12-29T09:27:34;10.88;;;1.77;;
22072;SDS011;11202;50.916;4.698;2022-12-29T09:30:00;8.07;;;1.88;;
22072;SDS011;11202;50.916;4.698;2022-12-29T09:32:28;6.70;;;1.58;;
22072;SDS011;11202;50.916;4.698;2022-12-29T09:34:53;7.68;;;1.98;;
22072;SDS011;11202;50.916;4.698;2022-12-29T09:37:19;5.03;;;1.38;;
22072;SDS011;11202;50.916;4.698;2022-12-29T09:39:46;12.40;;;1.30;;
22072;SDS011;11202;50.916;4.698;2022-12-29T09:42:29;7.63;;;2.08;;
22072;SDS011;11202;50.916;4.698;2022-12-29T09:47:40;5.63;;;1.33;;
22072;SDS011;11202;50.916;4.698;2022-12-29T09:52:37;7.07;;;1.50;;
22072;SDS011;11202;50.916;4.698;2022-12-29T09:55:10;9.80;;;2.85;;
22072;SDS011;11202;50.916;4.698;2022-12-29T09:57:48;8.27;;;1.90;;
22072;SDS011;11202;50.916;4.698;2022-12-29T10:00:26;7.07;;;1.27;;
22072;SDS011;11202;50.916;4.698;2022-12-29T10:03:17;2.60;;;0.95;;
22072;SDS011;11202;50.916;4.698;2022-12-29T10:24:10;6.97;;;1.73;;
22072;SDS011;11202;50.916;4.698;2022-12-29T10:27:07;7.38;;;1.20;;
22072;SDS011;11202;50.916;4.698;2022-12-29T10:43:45;9.38;;;1.83;;
22072;SDS011;11202;50.916;4.698;2022-12-29T10:56:02;4.38;;;1.63;;
22072;SDS011;11202;50.916;4.698;2022-12-29T10:59:31;10.77;;;2.17;;
22072;SDS011;11202;50.916;4.698;2022-12-29T11:05:44;6.95;;;1.42;;
22072;SDS011;11202;50.916;4.698;2022-12-29T11:08:45;5.32;;;1.80;;
22072;SDS011;11202;50.916;4.698;2022-12-29T11:11:43;4.70;;;1.85;;
22072;SDS011;11202;50.916;4.698;2022-12-29T11:18:01;8.15;;;1.58;;
22072;SDS011;11202;50.916;4.698;2022-12-29T11:24:43;5.53;;;1.20;;
22072;SDS011;11202;50.916;4.698;2022-12-29T11:27:14;3.05;;;1.10;;
22072;SDS011;11202;50.916;4.698;2022-12-29T11:33:29;4.18;;;1.02;;
22072;SDS011;11202;50.916;4.698;2022-12-29T11:39:26;8.90;;;1.95;;
22072;SDS011;11202;50.916;4.698;2022-12-29T11:49:20;2.70;;;0.98;;
22072;SDS011;11202;50.916;4.698;2022-12-29T12:19:27;5.03;;;1.30;;
22072;SDS011;11202;50.916;4.698;2022-12-29T12:22:43;7.35;;;1.58;;
22072;SDS011;11202;50.916;4.698;2022-12-29T13:24:28;5.90;;;1.33;;
22072;SDS011;11202;50.916;4.698;2022-12-29T13:27:03;6.03;;;1.48;;
22072;SDS011;11202;50.916;4.698;2022-12-29T13:40:16;8.88;;;1.55;;
22072;SDS011;11202;50.916;4.698;2022-12-29T13:42:48;4.10;;;1.50;;
22072;SDS011;11202;50.916;4.698;2022-12-29T13:45:18;3.55;;;1.42;;
22072;SDS011;11202;50.916;4.698;2022-12-29T13:50:22;11.85;;;1.90;;
22072;SDS011;11202;50.916;4.698;2022-12-29T13:58:26;11.55;;;1.60;;
22072;SDS011;11202;50.916;4.698;2022-12-29T14:01:10;7.18;;;1.70;;
22072;SDS011;11202;50.916;4.698;2022-12-29T14:03:53;6.45;;;1.65;;
22072;SDS011;11202;50.916;4.698;2022-12-29T14:08:48;10.27;;;1.80;;
22072;SDS011;11202;50.916;4.698;2022-12-29T14:14:10;10.93;;;2.63;;
22072;SDS011;11202;50.916;4.698;2022-12-29T14:16:53;10.73;;;1.95;;
22072;SDS011;11202;50.916;4.698;2022-12-29T14:19:21;13.10;;;2.35;;
22072;SDS011;11202;50.916;4.698;2022-12-29T14:21:53;8.00;;;1.77;;
22072;SDS011;11202;50.916;4.698;2022-12-29T14:26:57;11.95;;;2.42;;
22072;SDS011;11202;50.916;4.698;2022-12-29T14:31:52;15.48;;;1.75;;
22072;SDS011;11202;50.916;4.698;2022-12-29T14:42:02;8.40;;;1.90;;
22072;SDS011;11202;50.916;4.698;2022-12-29T14:47:55;11.80;;;2.35;;
22072;SDS011;11202;50.916;4.698;2022-12-29T14:52:52;17.87;;;3.03;;
22072;SDS011;11202;50.916;4.698;2022-12-29T14:58:21;14.27;;;2.53;;
22072;SDS011;11202;50.916;4.698;2022-12-29T15:00:53;5.43;;;1.63;;
22072;SDS011;11202;50.916;4.698;2022-12-29T15:03:29;12.35;;;2.40;;
22072;SDS011;11202;50.916;4.698;2022-12-29T15:05:55;4.53;;;1.33;;
22072;SDS011;11202;50.916;4.698;2022-12-29T15:08:24;3.35;;;1.10;;
22072;SDS011;11202;50.916;4.698;2022-12-29T15:10:53;6.80;;;1.60;;
22072;SDS011;11202;50.916;4.698;2022-12-29T15:13:24;7.07;;;1.70;;
22072;SDS011;11202;50.916;4.698;2022-12-29T15:18:32;4.53;;;1.40;;
22072;SDS011;11202;50.916;4.698;2022-12-29T15:20:59;7.13;;;2.20;;
22072;SDS011;11202;50.916;4.698;2022-12-29T15:23:27;13.00;;;1.88;;
22072;SDS011;11202;50.916;4.698;2022-12-29T15:25:56;5.93;;;1.70;;
22072;SDS011;11202;50.916;4.698;2022-12-29T15:28:28;10.55;;;2.67;;
22072;SDS011;11202;50.916;4.698;2022-12-29T15:31:10;7.20;;;1.30;;
22072;SDS011;11202;50.916;4.698;2022-12-29T15:33:42;13.18;;;2.10;;
22072;SDS011;11202;50.916;4.698;2022-12-29T15:36:13;5.90;;;1.73;;
22072;SDS011;11202;50.916;4.698;2022-12-29T15:38:43;5.32;;;1.70;;
22072;SDS011;11202;50.916;4.698;2022-12-29T15:43:53;8.27;;;1.48;;
22072;SDS011;11202;50.916;4.698;2022-12-29T15:46:32;9.77;;;2.25;;
22072;SDS011;11202;50.916;4.698;2022-12-29T15:48:58;9.88;;;1.60;;
22072;SDS011;11202;50.916;4.698;2022-12-29T15:51:27;7.43;;;1.63;;
22072;SDS011;11202;50.916;4.698;2022-12-29T15:53:56;8.68;;;2.17;;
22072;SDS011;11202;50.916;4.698;2022-12-29T15:56:22;12.60;;;2.25;;
22072;SDS011;11202;50.916;4.698;2022-12-29T15:58:50;8.02;;;2.40;;
22072;SDS011;11202;50.916;4.698;2022-12-29T16:01:29;10.45;;;2.15;;
22072;SDS011;11202;50.916;4.698;2022-12-29T16:04:01;9.48;;;1.70;;
22072;SDS011;11202;50.916;4.698;2022-12-29T16:06:34;10.65;;;1.90;;
22072;SDS011;11202;50.916;4.698;2022-12-29T16:09:16;8.35;;;2.20;;
22072;SDS011;11202;50.916;4.698;2022-12-29T16:12:05;9.73;;;2.40;;
22072;SDS011;11202;50.916;4.698;2022-12-29T16:14:41;6.47;;;1.60;;
22072;SDS011;11202;50.916;4.698;2022-12-29T16:17:12;12.32;;;2.47;;
22072;SDS011;11202;50.916;4.698;2022-12-29T16:19:41;9.23;;;2.30;;
22072;SDS011;11202;50.916;4.698;2022-12-29T16:22:25;6.43;;;1.98;;
22072;SDS011;11202;50.916;4.698;2022-12-29T16:24:57;14.50;;;2.83;;
22072;SDS011;11202;50.916;4.698;2022-12-29T16:27:36;11.00;;;2.67;;
22072;SDS011;11202;50.916;4.698;2022-12-29T16:30:19;12.50;;;2.90;;
22072;SDS011;11202;50.916;4.698;2022-12-29T16:32:57;19.83;;;3.22;;
22072;SDS011;11202;50.916;4.698;2022-12-29T16:35:25;10.40;;;2.30;;
22072;SDS011;11202;50.916;4.698;2022-12-29T16:38:22;12.10;;;2.42;;
22072;SDS011;11202;50.916;4.698;2022-12-29T16:40:56;12.38;;;2.50;;
22072;SDS011;11202;50.916;4.698;2022-12-29T16:43:24;12.77;;;2.88;;
22072;SDS011;11202;50.916;4.698;2022-12-29T16:46:25;16.45;;;2.53;;
22072;SDS011;11202;50.916;4.698;2022-12-29T16:48:54;15.02;;;2.42;;
22072;SDS011;11202;50.916;4.698;2022-12-29T16:51:32;14.48;;;2.85;;
22072;SDS011;11202;50.916;4.698;2022-12-29T16:54:00;10.68;;;2.58;;
22072;SDS011;11202;50.916;4.698;2022-12-29T16:56:28;17.45;;;2.88;;
22072;SDS011;11202;50.916;4.698;2022-12-29T17:01:34;19.55;;;3.58;;
22072;SDS011;11202;50.916;4.698;2022-12-29T17:04:05;20.23;;;4.07;;
22072;SDS011;11202;50.916;4.698;2022-12-29T17:06:34;15.75;;;3.28;;
22072;SDS011;11202;50.916;4.698;2022-12-29T17:09:00;16.85;;;3.05;;
22072;SDS011;11202;50.916;4.698;2022-12-29T17:11:39;20.02;;;3.53;;
22072;SDS011;11202;50.916;4.698;2022-12-29T17:16:59;16.20;;;3.58;;
22072;SDS011;11202;50.916;4.698;2022-12-29T17:19:28;18.67;;;3.67;;
22072;SDS011;11202;50.916;4.698;2022-12-29T17:21:58;16.77;;;3.28;;
22072;SDS011;11202;50.916;4.698;2022-12-29T17:24:27;17.67;;;3.28;;
22072;SDS011;11202;50.916;4.698;2022-12-29T17:26:55;15.63;;;3.65;;
22072;SDS011;11202;50.916;4.698;2022-12-29T17:31:51;13.60;;;3.30;;
22072;SDS011;11202;50.916;4.698;2022-12-29T17:34:18;8.95;;;2.10;;
22072;SDS011;11202;50.916;4.698;2022-12-29T17:36:45;12.95;;;2.47;;
22072;SDS011;11202;50.916;4.698;2022-12-29T17:39:10;19.55;;;2.83;;
22072;SDS011;11202;50.916;4.698;2022-12-29T17:41:36;13.23;;;2.40;;
22072;SDS011;11202;50.916;4.698;2022-12-29T17:44:02;19.50;;;2.85;;
22072;SDS011;11202;50.916;4.698;2022-12-29T17:46:29;8.55;;;2.15;;
22072;SDS011;11202;50.916;4.698;2022-12-29T17:48:54;11.73;;;2.42;;
22072;SDS011;11202;50.916;4.698;2022-12-29T17:51:20;5.15;;;1.90;;
22072;SDS011;11202;50.916;4.698;2022-12-29T17:53:47;13.80;;;2.72;;
22072;SDS011;11202;50.916;4.698;2022-12-29T17:56:14;9.57;;;2.95;;
22072;SDS011;11202;50.916;4.698;2022-12-29T17:58:40;13.85;;;1.98;;
22072;SDS011;11202;50.916;4.698;2022-12-29T18:01:06;14.30;;;3.03;;
22072;SDS011;11202;50.916;4.698;2022-12-29T18:03:33;13.18;;;2.38;;
22072;SDS011;11202;50.916;4.698;2022-12-29T18:06:01;8.30;;;1.50;;
22072;SDS011;11202;50.916;4.698;2022-12-29T18:08:30;15.95;;;3.08;;
22072;SDS011;11202;50.916;4.698;2022-12-29T18:10:56;7.18;;;1.58;;
22072;SDS011;11202;50.916;4.698;2022-12-29T18:13:24;14.15;;;2.35;;
22072;SDS011;11202;50.916;4.698;2022-12-29T18:15:57;8.60;;;2.28;;
22072;SDS011;11202;50.916;4.698;2022-12-29T18:18:23;10.93;;;2.40;;
22072;SDS011;11202;50.916;4.698;2022-12-29T18:20:51;7.63;;;1.75;;
22072;SDS011;11202;50.916;4.698;2022-12-29T18:23:21;6.60;;;1.70;;
22072;SDS011;11202;50.916;4.698;2022-12-29T18:25:51;10.40;;;2.40;;
22072;SDS011;11202;50.916;4.698;2022-12-29T18:28:24;11.15;;;2.13;;
22072;SDS011;11202;50.916;4.698;2022-12-29T18:30:51;8.52;;;2.10;;
22072;SDS011;11202;50.916;4.698;2022-12-29T18:33:18;8.38;;;2.08;;
22072;SDS011;11202;50.916;4.698;2022-12-29T18:38:21;10.30;;;2.00;;
22072;SDS011;11202;50.916;4.698;2022-12-29T18:40:47;6.18;;;1.38;;
22072;SDS011;11202;50.916;4.698;2022-12-29T18:43:14;9.63;;;2.10;;
22072;SDS011;11202;50.916;4.698;2022-12-29T18:45:42;11.38;;;2.42;;
22072;SDS011;11202;50.916;4.698;2022-12-29T18:48:12;13.05;;;2.83;;
22072;SDS011;11202;50.916;4.698;2022-12-29T18:50:38;16.73;;;2.92;;
22072;SDS011;11202;50.916;4.698;2022-12-29T18:53:15;7.43;;;2.50;;
22072;SDS011;11202;50.916;4.698;2022-12-29T18:55:51;7.70;;;2.17;;
22072;SDS011;11202;50.916;4.698;2022-12-29T18:58:21;15.30;;;2.25;;
22072;SDS011;11202;50.916;4.698;2022-12-29T19:00:49;11.80;;;2.00;;
22072;SDS011;11202;50.916;4.698;2022-12-29T19:03:16;9.02;;;1.70;;
22072;SDS011;11202;50.916;4.698;2022-12-29T19:05:42;9.23;;;1.63;;
22072;SDS011;11202;50.916;4.698;2022-12-29T19:08:10;15.60;;;2.75;;
22072;SDS011;11202;50.916;4.698;2022-12-29T19:10:36;11.27;;;3.05;;
22072;SDS011;11202;50.916;4.698;2022-12-29T19:13:05;4.10;;;1.50;;
22072;SDS011;11202;50.916;4.698;2022-12-29T19:15:35;14.88;;;2.30;;
22072;SDS011;11202;50.916;4.698;2022-12-29T19:18:04;8.23;;;2.05;;
22072;SDS011;11202;50.916;4.698;2022-12-29T19:23:03;10.68;;;1.52;;
22072;SDS011;11202;50.916;4.698;2022-12-29T19:25:31;12.05;;;2.20;;